Time,TemperatureF,DewpointF,PressureIn,WindDirection,WindDirectionDegrees,WindSpeedMPH,WindSpeedGustMPH,Humidity,HourlyPrecipIn,Conditions,Clouds,dailyrainin,SoftwareType,DateUTC
2013-01-23 00:10:00,22.1,10.0,30.05,West,274,0.0,1.0,61,0.00,,,0.00,weatherlink.com 1.10,2013-01-23 07:10:00,
2013-01-23 00:25:00,22.6,11.0,30.05,WNW,297,0.0,1.0,60,0.00,,,0.00,weatherlink.com 1.10,2013-01-23 07:25:00,
2013-01-23 00:40:00,21.8,9.0,30.05,WSW,248,1.0,1.0,59,0.00,,,0.00,weatherlink.com 1.10,2013-01-23 07:40:00,
2013-01-23 00:55:00,21.6,10.0,30.04,WNW,291,0.0,2.0,60,0.00,,,0.00,weatherlink.com 1.10,2013-01-23 07:55:00,
2013-01-23 01:10:00,20.8,9.0,30.04,WNW,297,0.0,1.0,61,0.00,,,0.00,weatherlink.com 1.10,2013-01-23 08:10:00,
2013-01-23 01:25:00,20.0,9.0,30.04,West,269,0.0,1.0,62,0.00,,,0.00,weatherlink.com 1.10,2013-01-23 08:25:00,
2013-01-23 01:41:00,19.9,9.0,30.04,West,281,0.0,1.0,64,0.00,,,0.00,weatherlink.com 1.10,2013-01-23 08:41:00,
2013-01-23 01:56:00,19.2,9.0,30.04,WNW,301,1.0,2.0,64,0.00,,,0.00,weatherlink.com 1.10,2013-01-23 08:56:00,
2013-01-23 02:11:00,19.2,9.0,30.04,WSW,238,0.0,0.0,65,0.00,,,0.00,weatherlink.com 1.10,2013-01-23 09:11:00,
2013-01-23 02:26:00,19.6,10.0,30.04,WSW,240,0.0,1.0,65,0.00,,,0.00,weatherlink.com 1.10,2013-01-23 09:26:00,
2013-01-23 02:41:00,19.4,10.0,30.03,SE,125,2.0,2.0,66,0.00,,,0.00,weatherlink.com 1.10,2013-01-23 09:41:00,
2013-01-23 02:56:00,20.7,10.0,30.03,NE,34,0.0,1.0,64,0.00,,,0.00,weatherlink.com 1.10,2013-01-23 09:56:00,
2013-01-23 03:11:00,17.8,7.0,30.03,WNW,287,0.0,1.0,64,0.00,,,0.00,weatherlink.com 1.10,2013-01-23 10:11:00,
2013-01-23 03:26:00,-999.0,-99.9,30.03,North,-999,-999.0,-999.0,-999,0.00,,,0.00,weatherlink.com 1.10,2013-01-23 10:26:00,
2013-01-23 04:11:00,-999.0,-99.9,30.00,North,-999,-999.0,-999.0,-999,0.00,,,0.00,weatherlink.com 1.10,2013-01-23 11:11:00,
2013-01-23 04:26:00,-999.0,-99.9,30.00,North,-999,-999.0,-999.0,-999,0.00,,,0.00,weatherlink.com 1.10,2013-01-23 11:26:00,
2013-01-23 04:41:00,-999.0,-99.9,29.99,North,-999,-999.0,-999.0,-999,0.00,,,0.00,weatherlink.com 1.10,2013-01-23 11:41:00,
2013-01-23 04:56:00,-999.0,-99.9,29.99,North,-999,-999.0,-999.0,-999,0.00,,,0.00,weatherlink.com 1.10,2013-01-23 11:56:00,
2013-01-23 05:11:00,-999.0,-99.9,29.99,North,-999,-999.0,-999.0,-999,0.00,,,0.00,weatherlink.com 1.10,2013-01-23 12:11:00,
2013-01-23 05:26:00,-999.0,-99.9,29.98,North,-999,-999.0,-999.0,-999,0.00,,,0.00,weatherlink.com 1.10,2013-01-23 12:26:00,
2013-01-23 05:41:00,-999.0,-99.9,29.99,North,-999,-999.0,-999.0,-999,0.00,,,0.00,weatherlink.com 1.10,2013-01-23 12:41:00,
2013-01-23 05:56:00,-999.0,-99.9,30.00,North,-999,-999.0,-999.0,-999,0.00,,,0.00,weatherlink.com 1.10,2013-01-23 12:56:00,
2013-01-23 06:12:00,-999.0,-99.9,29.99,North,-999,-999.0,-999.0,-999,0.00,,,0.00,weatherlink.com 1.10,2013-01-23 13:12:00,
2013-01-23 06:27:00,-999.0,-99.9,29.99,North,-999,-999.0,-999.0,-999,0.00,,,0.00,weatherlink.com 1.10,2013-01-23 13:27:00,
2013-01-23 06:42:00,-999.0,-99.9,30.00,North,-999,-999.0,-999.0,-999,0.00,,,0.00,weatherlink.com 1.10,2013-01-23 13:42:00,
2013-01-23 06:57:00,-999.0,-99.9,30.00,North,-999,-999.0,-999.0,-999,0.00,,,0.00,weatherlink.com 1.10,2013-01-23 13:57:00,
2013-01-23 07:12:00,-999.0,-99.9,30.02,North,-999,-999.0,-999.0,-999,0.00,,,0.00,weatherlink.com 1.10,2013-01-23 14:12:00,
2013-01-23 07:27:00,-999.0,-99.9,30.01,North,-999,-999.0,-999.0,-999,0.00,,,0.00,weatherlink.com 1.10,2013-01-23 14:27:00,
2013-01-23 07:42:00,-999.0,-99.9,30.01,North,-999,-999.0,-999.0,-999,0.00,,,0.00,weatherlink.com 1.10,2013-01-23 14:42:00,
2013-01-23 07:57:00,23.9,11.0,30.02,NNW,329,1.0,3.0,57,0.00,,,0.00,weatherlink.com 1.10,2013-01-23 14:57:00,
2013-01-23 08:12:00,26.2,10.0,30.04,NE,41,0.0,2.0,51,0.00,,,0.00,weatherlink.com 1.10,2013-01-23 15:12:00,
2013-01-23 08:27:00,28.4,12.0,30.05,NE,41,0.0,1.0,50,0.00,,,0.00,weatherlink.com 1.10,2013-01-23 15:27:00,
2013-01-23 08:42:00,32.3,11.0,30.06,WSW,248,0.0,1.0,41,0.00,,,0.00,weatherlink.com 1.10,2013-01-23 15:42:00,
2013-01-23 08:57:00,32.7,12.0,30.08,WNW,294,0.0,2.0,43,0.00,,,0.00,weatherlink.com 1.10,2013-01-23 15:57:00,
2013-01-23 09:12:00,33.5,12.0,30.09,WNW,287,1.0,1.0,41,0.00,,,0.00,weatherlink.com 1.10,2013-01-23 16:12:00,
2013-01-23 09:27:00,35.1,12.0,30.09,WSW,256,0.0,1.0,39,0.00,,,0.00,weatherlink.com 1.10,2013-01-23 16:27:00,
2013-01-23 09:42:00,35.9,13.0,30.09,West,280,2.0,3.0,39,0.00,,,0.00,weatherlink.com 1.10,2013-01-23 16:42:00,
2013-01-23 09:58:00,36.9,13.0,30.10,West,267,0.0,2.0,37,0.00,,,0.00,weatherlink.com 1.10,2013-01-23 16:58:00,
2013-01-23 10:13:00,37.7,13.0,30.10,WSW,252,2.0,3.0,36,0.00,,,0.00,weatherlink.com 1.10,2013-01-23 17:13:00,
2013-01-23 10:28:00,39.2,14.0,30.10,WSW,256,1.0,2.0,35,0.00,,,0.00,weatherlink.com 1.10,2013-01-23 17:28:00,
2013-01-23 10:43:00,39.9,13.0,30.10,NW,316,2.0,3.0,33,0.00,,,0.00,weatherlink.com 1.10,2013-01-23 17:43:00,
2013-01-23 10:58:00,41.1,15.0,30.09,NW,304,0.0,3.0,34,0.00,,,0.00,weatherlink.com 1.10,2013-01-23 17:58:00,
2013-01-23 11:13:00,42.6,15.0,30.08,WNW,297,0.0,2.0,33,0.00,,,0.00,weatherlink.com 1.10,2013-01-23 18:13:00,
2013-01-23 11:28:00,44.6,16.0,30.08,South,173,0.0,1.0,31,0.00,,,0.00,weatherlink.com 1.10,2013-01-23 18:28:00,
2013-01-23 11:43:00,45.7,16.0,30.07,WSW,255,0.0,2.0,30,0.00,,,0.00,weatherlink.com 1.10,2013-01-23 18:43:00,
2013-01-23 11:58:00,48.8,17.0,30.06,South,176,0.0,1.0,28,0.00,,,0.00,weatherlink.com 1.10,2013-01-23 18:58:00,
2013-01-23 12:13:00,50.3,16.0,30.06,South,169,1.0,1.0,26,0.00,,,0.00,weatherlink.com 1.10,2013-01-23 19:13:00,
2013-01-23 12:28:00,51.4,17.0,30.06,ESE,106,1.0,1.0,25,0.00,,,0.00,weatherlink.com 1.10,2013-01-23 19:28:00,
2013-01-23 12:43:00,53.6,13.0,30.05,North,349,1.0,6.0,20,0.00,,,0.00,weatherlink.com 1.10,2013-01-23 19:43:00,
2013-01-23 12:58:00,54.3,14.0,30.05,South,183,2.0,4.0,20,0.00,,,0.00,weatherlink.com 1.10,2013-01-23 19:58:00,
2013-01-23 13:13:00,56.1,13.0,30.05,South,190,1.0,7.0,18,0.00,,,0.00,weatherlink.com 1.10,2013-01-23 20:13:00,
2013-01-23 13:28:00,59.0,13.0,30.04,SSW,203,1.0,5.0,16,0.00,,,0.00,weatherlink.com 1.10,2013-01-23 20:28:00,
2013-01-23 13:43:00,60.8,14.0,30.03,NW,316,2.0,5.0,16,0.00,,,0.00,weatherlink.com 1.10,2013-01-23 20:43:00,
2013-01-23 13:58:00,58.8,14.0,30.02,SE,142,1.0,7.0,17,0.00,,,0.00,weatherlink.com 1.10,2013-01-23 20:58:00,
2013-01-23 14:13:00,57.0,12.0,30.03,ESE,114,3.0,7.0,17,0.00,,,0.00,weatherlink.com 1.10,2013-01-23 21:13:00,
2013-01-23 14:28:00,54.9,12.0,30.03,SSW,205,5.0,9.0,18,0.00,,,0.00,weatherlink.com 1.10,2013-01-23 21:28:00,
2013-01-23 14:43:00,54.8,11.0,30.03,ESE,118,3.0,7.0,17,0.00,,,0.00,weatherlink.com 1.10,2013-01-23 21:43:00,
2013-01-23 14:58:00,53.3,11.0,30.04,East,101,5.0,7.0,18,0.00,,,0.00,weatherlink.com 1.10,2013-01-23 21:58:00,
2013-01-23 15:14:00,51.7,12.0,30.03,SE,144,1.0,8.0,20,0.00,,,0.00,weatherlink.com 1.10,2013-01-23 22:14:00,
2013-01-23 15:29:00,49.1,15.0,30.04,WNW,297,12.0,15.0,26,0.00,,,0.00,weatherlink.com 1.10,2013-01-23 22:29:00,
2013-01-23 15:44:00,46.7,16.0,30.04,South,171,2.0,12.0,29,0.00,,,0.00,weatherlink.com 1.10,2013-01-23 22:44:00,
2013-01-23 15:59:00,44.5,17.0,30.06,SSW,194,4.0,9.0,33,0.00,,,0.00,weatherlink.com 1.10,2013-01-23 22:59:00,
2013-01-23 16:14:00,41.5,17.0,30.06,SSW,198,3.0,12.0,37,0.00,,,0.00,weatherlink.com 1.10,2013-01-23 23:14:00,
2013-01-23 16:29:00,39.5,17.0,30.07,East,86,12.0,12.0,40,0.00,,,0.00,weatherlink.com 1.10,2013-01-23 23:29:00,
2013-01-23 16:44:00,37.3,17.0,30.07,SW,215,3.0,12.0,43,0.00,,,0.00,weatherlink.com 1.10,2013-01-23 23:44:00,
2013-01-23 16:59:00,35.8,16.0,30.08,ESE,122,3.0,11.0,45,0.00,,,0.00,weatherlink.com 1.10,2013-01-23 23:59:00,
2013-01-23 17:14:00,34.6,17.0,30.09,SSW,193,6.0,10.0,48,0.00,,,0.00,weatherlink.com 1.10,2013-01-24 00:14:00,
2013-01-23 17:29:00,33.4,16.0,30.10,WSW,246,4.0,7.0,50,0.00,,,0.00,weatherlink.com 1.10,2013-01-24 00:29:00,
2013-01-23 17:44:00,32.2,16.0,30.11,South,176,1.0,9.0,51,0.00,,,0.00,weatherlink.com 1.10,2013-01-24 00:44:00,
2013-01-23 17:59:00,31.4,16.0,30.10,NNE,16,5.0,9.0,53,0.00,,,0.00,weatherlink.com 1.10,2013-01-24 00:59:00,
2013-01-23 18:14:00,30.5,16.0,30.10,SSW,200,2.0,8.0,56,0.00,,,0.00,weatherlink.com 1.10,2013-01-24 01:14:00,
2013-01-23 18:29:00,30.0,17.0,30.10,West,260,2.0,8.0,58,0.00,,,0.00,weatherlink.com 1.10,2013-01-24 01:29:00,
2013-01-23 18:44:00,29.6,17.0,30.10,South,175,3.0,11.0,60,0.00,,,0.00,weatherlink.com 1.10,2013-01-24 01:44:00,
2013-01-23 18:59:00,29.2,18.0,30.11,South,177,4.0,9.0,62,0.00,,,0.00,weatherlink.com 1.10,2013-01-24 01:59:00,
2013-01-23 19:14:00,28.8,18.0,30.11,SW,215,4.0,12.0,64,0.00,,,0.00,weatherlink.com 1.10,2013-01-24 02:14:00,
2013-01-23 19:29:00,28.1,18.0,30.11,SE,142,4.0,6.0,66,0.00,,,0.00,weatherlink.com 1.10,2013-01-24 02:29:00,
2013-01-23 19:44:00,27.7,18.0,30.11,South,185,1.0,6.0,68,0.00,,,0.00,weatherlink.com 1.10,2013-01-24 02:44:00,
2013-01-23 19:59:00,27.2,19.0,30.12,West,262,6.0,6.0,70,0.00,,,0.00,weatherlink.com 1.10,2013-01-24 02:59:00,
2013-01-23 20:14:00,26.6,19.0,30.11,SW,215,2.0,8.0,72,0.00,,,0.00,weatherlink.com 1.10,2013-01-24 03:14:00,
2013-01-23 20:29:00,26.1,19.0,30.11,West,273,5.0,9.0,73,0.00,,,0.00,weatherlink.com 1.10,2013-01-24 03:29:00,
2013-01-23 20:44:00,25.7,18.0,30.11,SE,125,3.0,10.0,74,0.00,,,0.00,weatherlink.com 1.10,2013-01-24 03:44:00,
2013-01-23 20:59:00,25.2,18.0,30.11,SSW,209,1.0,10.0,75,0.00,,,0.00,weatherlink.com 1.10,2013-01-24 03:59:00,
2013-01-23 21:14:00,24.6,18.0,30.11,WSW,257,1.0,9.0,76,0.00,,,0.00,weatherlink.com 1.10,2013-01-24 04:14:00,
2013-01-23 21:29:00,24.3,18.0,30.11,SSE,163,4.0,7.0,77,0.00,,,0.00,weatherlink.com 1.10,2013-01-24 04:29:00,
2013-01-23 21:44:00,23.8,18.0,30.11,SSE,165,1.0,5.0,78,0.00,,,0.00,weatherlink.com 1.10,2013-01-24 04:44:00,
2013-01-23 21:59:00,23.9,18.0,30.11,SW,215,0.0,7.0,78,0.00,,,0.00,weatherlink.com 1.10,2013-01-24 04:59:00,
2013-01-23 22:14:00,23.6,17.0,30.11,WNW,291,1.0,6.0,77,0.00,,,0.00,weatherlink.com 1.10,2013-01-24 05:14:00,
2013-01-23 22:29:00,23.0,17.0,30.10,SSW,213,2.0,9.0,77,0.00,,,0.00,weatherlink.com 1.10,2013-01-24 05:29:00,
2013-01-23 22:44:00,22.9,17.0,30.11,WSW,245,1.0,5.0,77,0.00,,,0.00,weatherlink.com 1.10,2013-01-24 05:44:00,
2013-01-23 22:59:00,22.7,17.0,30.09,SSE,165,2.0,4.0,78,0.00,,,0.00,weatherlink.com 1.10,2013-01-24 05:59:00,
2013-01-23 23:14:00,22.9,17.0,30.08,NNW,336,3.0,8.0,78,0.00,,,0.00,weatherlink.com 1.10,2013-01-24 06:14:00,
2013-01-23 23:29:00,22.8,17.0,30.07,ENE,67,2.0,7.0,78,0.00,,,0.00,weatherlink.com 1.10,2013-01-24 06:29:00,
2013-01-23 23:44:00,22.7,17.0,30.06,WSW,239,3.0,7.0,78,0.00,,,0.00,weatherlink.com 1.10,2013-01-24 06:44:00,
2013-01-23 23:59:00,22.7,17.0,30.07,WNW,297,3.0,8.0,78,0.00,,,0.00,weatherlink.com 1.10,2013-01-24 06:59:00,